createdAt,value
2022-12-01T00:01:40.889Z,12.80
2022-12-01T00:04:09.059Z,11.67
2022-12-01T00:06:39.083Z,11.50
2022-12-01T00:09:24.632Z,12.40
2022-12-01T00:11:53.214Z,12.17
2022-12-01T00:14:23.001Z,11.27
2022-12-01T00:16:51.234Z,12.50
2022-12-01T00:19:19.389Z,12.73
2022-12-01T00:21:48.857Z,12.70
2022-12-01T00:24:17.722Z,12.33
2022-12-01T00:26:46.265Z,11.50
2022-12-01T00:29:14.627Z,12.10
2022-12-01T00:31:44.216Z,11.77
2022-12-01T00:34:25.326Z,11.30
2022-12-01T00:36:53.845Z,10.87
2022-12-01T00:39:22.735Z,10.63
2022-12-01T00:41:51.196Z,10.30
2022-12-01T00:44:19.546Z,12.43
2022-12-01T00:46:49.262Z,11.20
2022-12-01T00:49:18.441Z,10.57
2022-12-01T00:51:47.621Z,11.43
2022-12-01T00:54:16.596Z,10.57
2022-12-01T00:56:44.982Z,10.70
2022-12-01T00:59:14.350Z,10.23
2022-12-01T01:01:42.907Z,10.93
2022-12-01T01:04:12.740Z,11.17
2022-12-01T01:06:43.301Z,9.33
2022-12-01T01:09:12.852Z,9.30
2022-12-01T01:11:41.384Z,9.87
2022-12-01T01:14:11.327Z,9.17
2022-12-01T01:16:39.849Z,9.60
2022-12-01T01:19:08.636Z,9.00
2022-12-01T01:21:38.164Z,9.57
2022-12-01T01:24:07.338Z,8.93
2022-12-01T01:26:37.830Z,9.30
2022-12-01T01:29:07.855Z,7.90
2022-12-01T01:31:37.664Z,8.37
2022-12-01T01:34:05.849Z,8.43
2022-12-01T01:36:35.004Z,8.53
2022-12-01T01:39:05.559Z,8.50
2022-12-01T01:41:34.939Z,8.63
2022-12-01T01:44:04.956Z,7.70
2022-12-01T01:46:35.857Z,8.97
2022-12-01T01:49:08.831Z,8.13
2022-12-01T01:51:43.500Z,7.87
2022-12-01T01:54:20.916Z,8.20
2022-12-01T01:56:52.540Z,8.33
2022-12-01T01:59:28.656Z,8.33
2022-12-01T02:02:06.180Z,8.50
2022-12-01T02:04:38.262Z,7.47
2022-12-01T02:07:09.250Z,8.43
2022-12-01T02:09:39.562Z,8.23
2022-12-01T02:12:29.681Z,8.43
2022-12-01T02:15:23.732Z,9.00
2022-12-01T02:18:09.757Z,8.27
2022-12-01T02:21:25.220Z,8.97
2022-12-01T02:24:53.461Z,8.83
2022-12-01T02:27:38.293Z,9.40
2022-12-01T02:30:14.107Z,9.57
2022-12-01T02:33:07.922Z,10.40
2022-12-01T02:35:50.050Z,8.37
2022-12-01T02:38:29.699Z,8.97
2022-12-01T02:41:11.219Z,8.20
2022-12-01T02:43:47.829Z,9.50
2022-12-01T02:46:24.905Z,10.30
2022-12-01T02:48:59.969Z,9.10
2022-12-01T02:51:33.319Z,9.37
2022-12-01T02:54:05.143Z,9.13
2022-12-01T02:56:33.662Z,9.40
2022-12-01T02:59:02.120Z,9.70
2022-12-01T03:01:57.084Z,9.33
2022-12-01T03:04:45.769Z,9.67
2022-12-01T03:07:35.297Z,9.83
2022-12-01T03:10:18.498Z,9.93
2022-12-01T03:13:06.127Z,10.30
2022-12-01T03:15:42.892Z,10.87
2022-12-01T03:18:25.860Z,9.67
2022-12-01T03:21:03.036Z,10.43
2022-12-01T03:23:38.920Z,11.17
2022-12-01T03:26:13.288Z,10.30
2022-12-01T03:28:50.205Z,11.03
2022-12-01T03:31:26.758Z,10.67
2022-12-01T03:34:05.017Z,10.10
2022-12-01T03:36:41.380Z,11.10
2022-12-01T03:39:20.390Z,10.67
2022-12-01T03:41:59.182Z,10.80
2022-12-01T03:44:35.763Z,10.90
2022-12-01T03:47:09.597Z,11.07
2022-12-01T03:49:41.683Z,11.47
2022-12-01T03:52:28.246Z,11.07
2022-12-01T03:55:12.423Z,12.23
2022-12-01T03:57:48.103Z,12.23
2022-12-01T04:00:18.510Z,11.60
2022-12-01T04:02:46.933Z,11.93
2022-12-01T04:05:17.324Z,12.83
2022-12-01T04:07:48.593Z,11.50
2022-12-01T04:10:18.604Z,10.83
2022-12-01T04:12:45.752Z,12.20
2022-12-01T04:15:16.023Z,11.53
2022-12-01T04:17:45.586Z,10.87
2022-12-01T04:20:16.172Z,11.47
2022-12-01T04:22:44.751Z,11.77
2022-12-01T04:25:14.606Z,10.97
2022-12-01T04:27:42.832Z,10.40
2022-12-01T04:30:14.581Z,10.67
2022-12-01T04:32:45.068Z,10.97
2022-12-01T04:35:15.600Z,11.33
2022-12-01T04:37:43.724Z,10.37
2022-12-01T04:40:14.937Z,10.90
2022-12-01T04:42:43.258Z,12.20
2022-12-01T04:45:12.865Z,10.63
2022-12-01T04:47:41.123Z,11.80
2022-12-01T04:50:12.022Z,10.07
2022-12-01T04:52:40.277Z,11.70
2022-12-01T04:55:11.041Z,10.07
2022-12-01T04:57:41.402Z,10.70
2022-12-01T05:00:13.602Z,10.33
2022-12-01T05:02:43.600Z,11.10
2022-12-01T05:05:14.538Z,11.37
2022-12-01T05:07:42.727Z,11.10
2022-12-01T05:10:13.786Z,14.13
2022-12-01T05:12:43.850Z,12.30
2022-12-01T05:15:13.450Z,11.30
2022-12-01T05:17:41.636Z,10.27
2022-12-01T05:20:39.667Z,12.30
2022-12-01T05:23:10.806Z,10.47
2022-12-01T05:25:42.876Z,11.10
2022-12-01T05:28:13.074Z,12.10
2022-12-01T05:30:41.205Z,11.93
2022-12-01T05:33:11.375Z,13.00
2022-12-01T05:35:40.079Z,11.07
2022-12-01T05:38:09.337Z,12.80
2022-12-01T05:40:38.436Z,10.60
2022-12-01T05:43:07.871Z,13.20
2022-12-01T05:45:37.849Z,11.77
2022-12-01T05:48:06.643Z,10.63
2022-12-01T05:50:38.636Z,11.00
2022-12-01T05:53:09.340Z,10.90
2022-12-01T05:55:37.522Z,11.60
2022-12-01T05:58:06.814Z,11.40
2022-12-01T06:00:42.282Z,12.27
2022-12-01T06:03:15.180Z,11.03
2022-12-01T06:05:44.554Z,11.23
2022-12-01T06:08:12.745Z,12.53
2022-12-01T06:10:40.948Z,12.37
2022-12-01T06:13:10.215Z,12.00
2022-12-01T06:15:39.804Z,11.63
2022-12-01T06:18:08.332Z,11.23
2022-12-01T06:20:37.434Z,12.33
2022-12-01T06:23:05.548Z,12.10
2022-12-01T06:25:34.020Z,12.30
2022-12-01T06:28:03.176Z,12.20
2022-12-01T06:30:31.619Z,11.87
2022-12-01T06:33:01.101Z,11.53
2022-12-01T06:35:31.047Z,12.20
2022-12-01T06:38:00.642Z,13.80
2022-12-01T06:40:28.983Z,13.13
2022-12-01T06:43:01.099Z,12.23
2022-12-01T06:45:29.926Z,13.47
2022-12-01T06:48:00.779Z,13.10
2022-12-01T06:50:28.913Z,12.13
2022-12-01T06:52:59.281Z,13.43
2022-12-01T06:55:27.839Z,13.43
2022-12-01T06:57:56.340Z,12.40
2022-12-01T07:00:25.218Z,14.37
2022-12-01T07:02:53.470Z,12.23
2022-12-01T07:05:23.431Z,12.77
2022-12-01T07:07:56.347Z,12.37
2022-12-01T07:10:28.301Z,13.07
2022-12-01T07:12:57.744Z,11.93
2022-12-01T07:15:26.280Z,12.87
2022-12-01T07:17:54.821Z,12.73
2022-12-01T07:20:24.291Z,11.10
2022-12-01T07:22:53.486Z,12.23
2022-12-01T07:25:22.083Z,12.27
2022-12-01T07:27:50.350Z,11.83
2022-12-01T07:30:22.047Z,12.17
2022-12-01T07:32:53.387Z,12.30
2022-12-01T07:35:21.528Z,12.03
2022-12-01T07:37:56.498Z,13.17
2022-12-01T07:40:24.828Z,11.80
2022-12-01T07:42:53.699Z,12.47
2022-12-01T07:45:21.751Z,12.10
2022-12-01T07:47:54.028Z,12.33
2022-12-01T07:50:22.149Z,12.80
2022-12-01T07:52:52.686Z,12.90
2022-12-01T07:55:21.719Z,12.50
2022-12-01T07:57:50.913Z,15.70
2022-12-01T08:00:19.918Z,15.00
2022-12-01T08:02:50.440Z,12.77
2022-12-01T08:05:18.713Z,12.27
2022-12-01T08:07:47.041Z,12.60
2022-12-01T08:10:16.819Z,12.27
2022-12-01T08:12:47.984Z,11.97
2022-12-01T08:15:17.504Z,12.20
2022-12-01T08:17:45.670Z,13.07
2022-12-01T08:20:19.640Z,11.37
2022-12-01T08:22:52.236Z,11.60
2022-12-01T08:25:22.246Z,12.27
2022-12-01T08:27:50.355Z,11.37
2022-12-01T08:30:19.337Z,12.20
2022-12-01T08:32:48.017Z,13.00
2022-12-01T08:35:16.294Z,11.33
2022-12-01T08:37:45.803Z,12.43
2022-12-01T08:40:14.671Z,12.40
2022-12-01T08:42:44.959Z,11.80
2022-12-01T08:45:13.818Z,11.60
2022-12-01T08:47:41.903Z,12.23
2022-12-01T08:50:12.037Z,13.00
2022-12-01T08:52:40.145Z,12.10
2022-12-01T08:55:10.117Z,11.23
2022-12-01T08:57:38.522Z,12.07
2022-12-01T09:00:10.195Z,13.00
2022-12-01T09:02:38.539Z,12.23
2022-12-01T09:05:07.733Z,11.37
2022-12-01T09:07:36.227Z,11.37
2022-12-01T09:10:05.775Z,12.20
2022-12-01T09:12:34.519Z,11.93
2022-12-01T09:15:02.956Z,11.40
2022-12-01T09:17:32.419Z,11.63
2022-12-01T09:20:01.042Z,11.23
2022-12-01T09:22:29.811Z,12.13
2022-12-01T09:24:57.914Z,11.50
2022-12-01T09:27:26.782Z,11.57
2022-12-01T09:29:55.461Z,11.77
2022-12-01T09:32:23.508Z,11.73
2022-12-01T09:34:53.528Z,12.30
2022-12-01T09:37:21.617Z,12.37
2022-12-01T09:39:51.642Z,13.73
2022-12-01T09:42:32.395Z,13.00
2022-12-01T09:45:06.614Z,12.07
2022-12-01T09:47:38.315Z,12.23
2022-12-01T09:50:14.289Z,11.67
2022-12-01T09:52:47.131Z,10.97
2022-12-01T09:55:18.274Z,11.53
2022-12-01T09:57:51.053Z,11.33
2022-12-01T10:00:23.471Z,11.37
2022-12-01T10:02:58.232Z,11.83
2022-12-01T10:06:02.933Z,12.43
2022-12-01T10:08:35.468Z,12.87
2022-12-01T10:11:13.090Z,12.93
2022-12-01T10:13:43.731Z,11.93
2022-12-01T10:16:19.337Z,10.70
2022-12-01T10:18:59.706Z,10.90
2022-12-01T10:21:54.107Z,10.93
2022-12-01T10:24:41.505Z,11.27
2022-12-01T10:27:38.382Z,12.67
2022-12-01T10:30:15.405Z,11.73
2022-12-01T10:32:54.213Z,11.80
2022-12-01T10:35:27.377Z,11.80
2022-12-01T10:38:01.226Z,11.77
2022-12-01T10:40:34.505Z,10.33
2022-12-01T10:43:03.916Z,11.30
2022-12-01T10:45:41.424Z,12.50
2022-12-01T10:48:17.525Z,11.63
2022-12-01T10:50:48.302Z,13.27
2022-12-01T10:53:32.654Z,10.77
2022-12-01T10:56:10.271Z,16.27
2022-12-01T10:58:48.358Z,12.13
2022-12-01T11:01:26.179Z,12.17
2022-12-01T11:03:58.671Z,14.40
2022-12-01T11:06:31.880Z,12.27
2022-12-01T11:09:05.015Z,12.40
2022-12-01T11:11:37.774Z,14.43
2022-12-01T11:14:18.314Z,11.53
2022-12-01T11:16:50.460Z,10.73
2022-12-01T11:19:28.047Z,10.77
2022-12-01T11:21:59.571Z,11.23
2022-12-01T11:24:43.022Z,13.30
2022-12-01T11:27:21.885Z,10.97
2022-12-01T11:29:53.640Z,13.83
2022-12-01T11:32:27.133Z,11.43
2022-12-01T11:34:59.620Z,10.90
2022-12-01T11:37:33.711Z,12.07
2022-12-01T11:40:18.036Z,11.23
2022-12-01T11:42:52.167Z,13.50
2022-12-01T11:45:32.290Z,15.57
2022-12-01T11:48:06.191Z,15.13
2022-12-01T11:50:39.109Z,10.40
2022-12-01T11:53:29.355Z,15.50
2022-12-01T11:56:23.173Z,12.87
2022-12-01T11:59:01.368Z,10.53
2022-12-01T12:01:48.527Z,10.93
2022-12-01T12:04:33.502Z,10.73
2022-12-01T12:07:15.505Z,10.07
2022-12-01T12:10:11.204Z,10.33
2022-12-01T12:13:01.129Z,11.50
2022-12-01T12:15:46.227Z,11.07
2022-12-01T12:18:49.414Z,11.83
2022-12-01T12:21:34.148Z,11.83
2022-12-01T12:24:29.635Z,10.83
2022-12-01T12:27:09.897Z,13.70
2022-12-01T12:29:58.397Z,10.83
2022-12-01T12:32:48.723Z,10.77
2022-12-01T12:35:37.349Z,11.27
2022-12-01T12:38:32.900Z,11.80
2022-12-01T12:41:21.530Z,13.83
2022-12-01T12:44:10.645Z,14.20
2022-12-01T12:46:55.023Z,11.27
2022-12-01T12:49:40.411Z,10.70
2022-12-01T12:52:15.232Z,10.80
2022-12-01T12:54:53.537Z,12.97
2022-12-01T12:57:31.193Z,13.03
2022-12-01T13:00:06.469Z,11.40
2022-12-01T13:02:44.276Z,12.07
2022-12-01T13:05:21.144Z,11.73
2022-12-01T13:07:57.669Z,11.63
2022-12-01T13:10:38.587Z,13.33
2022-12-01T13:13:24.109Z,12.77
2022-12-01T13:15:56.440Z,11.70
2022-12-01T13:18:37.827Z,11.37
2022-12-01T13:21:07.109Z,11.37
2022-12-01T13:23:39.574Z,10.90
2022-12-01T13:26:11.435Z,12.67
2022-12-01T13:28:44.795Z,13.67
2022-12-01T13:31:17.270Z,11.60
2022-12-01T13:33:59.168Z,11.70
2022-12-01T13:36:46.174Z,12.70
2022-12-01T13:39:23.124Z,10.30
2022-12-01T13:42:22.815Z,17.03
2022-12-01T13:44:55.989Z,12.20
2022-12-01T13:47:48.520Z,11.47
2022-12-01T13:50:57.535Z,11.70
2022-12-01T13:53:36.818Z,10.53
2022-12-01T13:56:40.953Z,11.13
2022-12-01T14:00:06.676Z,9.83
2022-12-01T14:02:41.077Z,12.03
2022-12-01T14:05:57.204Z,10.83
2022-12-01T14:08:28.293Z,11.13
2022-12-01T14:11:00.646Z,11.37
2022-12-01T14:13:31.723Z,9.87
2022-12-01T14:16:03.492Z,9.97
2022-12-01T14:18:36.600Z,12.47
2022-12-01T14:21:09.856Z,9.60
2022-12-01T14:23:59.060Z,10.43
2022-12-01T14:26:31.803Z,10.23
2022-12-01T14:29:26.977Z,12.60
2022-12-01T14:32:25.097Z,14.50
2022-12-01T14:35:13.371Z,11.10
2022-12-01T14:37:49.778Z,14.77
2022-12-01T14:40:25.948Z,10.63
2022-12-01T14:43:16.105Z,12.43
2022-12-01T14:45:58.579Z,10.40
2022-12-01T14:48:38.652Z,10.47
2022-12-01T14:51:23.520Z,9.87
2022-12-01T14:53:56.853Z,10.30
2022-12-01T14:56:27.690Z,16.83
2022-12-01T14:58:59.475Z,13.90
2022-12-01T15:01:33.511Z,11.07
2022-12-01T15:04:06.413Z,10.73
2022-12-01T15:06:39.678Z,12.83
2022-12-01T15:43:19.132Z,10.00
2022-12-01T15:45:57.416Z,10.53
2022-12-01T15:48:31.063Z,9.93
2022-12-01T15:51:14.756Z,11.20
2022-12-01T15:53:50.654Z,10.20
2022-12-01T15:56:27.046Z,10.67
2022-12-01T15:59:07.990Z,10.40
2022-12-01T16:01:37.431Z,11.03
2022-12-01T16:04:15.975Z,11.10
2022-12-01T16:06:52.785Z,11.00
2022-12-01T16:09:26.784Z,10.50
2022-12-01T16:12:23.525Z,9.67
2022-12-01T16:14:58.370Z,10.33
2022-12-01T16:17:28.167Z,10.20
2022-12-01T16:20:26.740Z,10.23
2022-12-01T16:23:00.168Z,9.57
2022-12-01T16:25:37.997Z,10.90
2022-12-01T16:28:18.498Z,11.77
2022-12-01T16:30:49.563Z,10.73
2022-12-01T16:33:21.762Z,11.77
2022-12-01T16:35:50.665Z,10.63
2022-12-01T16:38:22.729Z,11.00
2022-12-01T16:40:53.927Z,9.67
2022-12-01T16:43:25.884Z,9.73
2022-12-01T16:46:05.119Z,9.70
2022-12-01T16:48:34.920Z,9.97
2022-12-01T16:51:07.478Z,9.70
2022-12-01T16:53:36.807Z,11.17
2022-12-01T16:56:05.435Z,9.43
2022-12-01T16:58:34.714Z,10.00
2022-12-01T17:01:06.784Z,10.17
2022-12-01T17:03:35.205Z,9.37
2022-12-01T17:06:05.640Z,10.00
2022-12-01T17:08:33.990Z,10.43
2022-12-01T17:11:05.886Z,10.17
2022-12-01T17:13:34.976Z,9.37
2022-12-01T17:16:11.643Z,9.93
2022-12-01T17:18:43.378Z,8.83
2022-12-01T17:21:13.898Z,9.80
2022-12-01T17:23:42.546Z,9.13
2022-12-01T17:26:15.416Z,10.33
2022-12-01T17:28:43.888Z,10.83
2022-12-01T17:31:14.706Z,12.53
2022-12-01T17:33:43.788Z,11.87
2022-12-01T17:36:15.617Z,13.53
2022-12-01T17:38:48.110Z,11.43
2022-12-01T17:41:21.700Z,10.67
2022-12-01T17:43:49.975Z,9.53
2022-12-01T17:46:20.116Z,10.80
2022-12-01T17:48:50.239Z,10.53
2022-12-01T17:51:19.029Z,10.43
2022-12-01T17:53:47.573Z,10.47
2022-12-01T17:56:19.167Z,10.20
2022-12-01T17:58:47.532Z,13.00
2022-12-01T18:01:17.876Z,10.83
2022-12-01T18:03:48.934Z,14.20
2022-12-01T18:06:19.784Z,12.17
2022-12-01T18:08:49.484Z,15.37
2022-12-01T18:11:18.818Z,11.10
2022-12-01T18:13:51.404Z,11.40
2022-12-01T18:16:22.870Z,10.60
2022-12-01T18:18:53.303Z,10.87
2022-12-01T18:21:24.987Z,10.27
2022-12-01T18:23:57.055Z,16.07
2022-12-01T18:26:27.626Z,12.17
2022-12-01T18:28:56.801Z,13.43
2022-12-01T18:31:26.600Z,12.83
2022-12-01T18:34:02.611Z,11.90
2022-12-01T18:36:34.141Z,10.50
2022-12-01T18:39:04.498Z,11.27
2022-12-01T18:41:33.413Z,10.37
2022-12-01T18:44:02.093Z,12.73
2022-12-01T18:46:32.200Z,12.87
2022-12-01T18:49:02.806Z,13.83
2022-12-01T18:51:33.655Z,17.67
2022-12-01T18:54:03.979Z,15.90
2022-12-01T18:56:33.634Z,12.47
2022-12-01T18:59:06.138Z,13.60
2022-12-01T19:01:37.971Z,11.27
2022-12-01T19:04:10.018Z,11.77
2022-12-01T19:06:41.149Z,12.40
2022-12-01T19:09:12.555Z,11.00
2022-12-01T19:11:42.064Z,11.53
2022-12-01T19:14:17.264Z,12.67
2022-12-01T19:16:46.917Z,11.67
2022-12-01T19:19:16.568Z,11.40
2022-12-01T19:21:45.314Z,12.43
2022-12-01T19:24:14.104Z,13.43
2022-12-01T19:26:42.412Z,13.97
2022-12-01T19:29:10.864Z,12.60
2022-12-01T19:31:39.676Z,12.60
2022-12-01T19:34:08.460Z,11.53
2022-12-01T19:36:38.393Z,12.10
2022-12-01T19:39:07.911Z,13.30
2022-12-01T19:41:38.927Z,12.03
2022-12-01T19:44:07.680Z,12.17
2022-12-01T19:46:35.870Z,13.60
2022-12-01T19:49:05.685Z,11.67
2022-12-01T19:51:40.243Z,12.27
2022-12-01T19:54:13.917Z,11.93
2022-12-01T19:56:42.887Z,12.47
2022-12-01T19:59:13.110Z,12.57
2022-12-01T20:01:42.637Z,11.07
2022-12-01T20:04:11.103Z,11.73
2022-12-01T20:06:43.561Z,11.63
2022-12-01T20:09:11.811Z,12.60
2022-12-01T20:11:40.270Z,12.53
2022-12-01T20:14:10.259Z,11.90
2022-12-01T20:16:38.756Z,12.03
2022-12-01T20:19:08.111Z,13.50
2022-12-01T20:21:43.033Z,20.17
2022-12-01T20:24:15.176Z,17.50
2022-12-01T20:26:46.579Z,19.20
2022-12-01T20:29:18.112Z,12.97
2022-12-01T20:31:48.100Z,14.73
2022-12-01T20:34:21.408Z,18.07
2022-12-01T20:36:51.992Z,21.03
2022-12-01T20:39:21.475Z,15.03
2022-12-01T20:41:50.511Z,13.83
2022-12-01T20:44:19.344Z,12.17
2022-12-01T20:47:11.176Z,12.77
2022-12-01T20:49:39.455Z,12.57
2022-12-01T20:52:09.615Z,12.77
2022-12-01T20:54:39.098Z,12.73
2022-12-01T20:57:07.168Z,12.83
2022-12-01T20:59:36.512Z,14.67
2022-12-01T21:02:04.842Z,13.63
2022-12-01T21:04:32.972Z,13.60
2022-12-01T21:07:01.369Z,13.77
2022-12-01T21:09:31.000Z,13.20
2022-12-01T21:12:19.555Z,13.60
2022-12-01T21:15:00.675Z,13.13
2022-12-01T21:17:38.873Z,12.27
2022-12-01T21:20:21.363Z,13.47
2022-12-01T21:22:50.968Z,15.30
2022-12-01T21:25:24.378Z,12.23
2022-12-01T21:27:56.196Z,14.73
2022-12-01T21:30:26.332Z,12.77
2022-12-01T21:33:01.816Z,14.10
2022-12-01T21:35:31.090Z,13.47
2022-12-01T21:38:06.847Z,13.63
2022-12-01T21:40:36.530Z,13.93
2022-12-01T21:43:18.807Z,14.07
2022-12-01T21:45:51.267Z,13.87
2022-12-01T21:48:23.166Z,13.87
2022-12-01T21:51:00.662Z,14.97
2022-12-01T21:53:39.922Z,16.43
2022-12-01T21:56:18.549Z,15.87
2022-12-01T21:58:47.788Z,14.70
2022-12-01T22:01:24.129Z,14.43
2022-12-01T22:03:54.900Z,15.80
2022-12-01T22:06:30.367Z,13.50
2022-12-01T22:09:03.834Z,14.07
2022-12-01T22:11:33.995Z,17.60
2022-12-01T22:14:14.502Z,14.33
2022-12-01T22:16:46.431Z,15.07
2022-12-01T22:19:39.021Z,17.67
2022-12-01T22:22:24.100Z,16.77
2022-12-01T22:24:54.336Z,17.77
2022-12-01T22:27:33.635Z,18.20
2022-12-01T22:30:14.710Z,16.00
2022-12-01T22:32:57.188Z,14.33
2022-12-01T22:35:38.425Z,16.23
2022-12-01T22:38:27.892Z,19.03
2022-12-01T22:41:01.635Z,18.20
2022-12-01T22:43:43.924Z,15.33
2022-12-01T22:46:27.493Z,15.43
2022-12-01T22:48:58.529Z,15.57
2022-12-01T22:51:42.071Z,13.50
2022-12-01T22:54:43.759Z,17.10
2022-12-01T22:57:35.266Z,14.90
2022-12-01T23:00:17.048Z,14.23
2022-12-01T23:02:45.688Z,14.87
2022-12-01T23:05:24.862Z,14.33
2022-12-01T23:07:55.131Z,13.20
2022-12-01T23:10:26.231Z,13.40
2022-12-01T23:12:58.289Z,15.20
2022-12-01T23:15:35.543Z,13.37
2022-12-01T23:18:14.877Z,14.70
2022-12-01T23:20:45.876Z,14.57
2022-12-01T23:23:17.548Z,15.43
2022-12-01T23:25:47.745Z,14.73
2022-12-01T23:28:16.870Z,13.23
2022-12-01T23:30:51.360Z,14.77
2022-12-01T23:33:24.026Z,16.77
2022-12-01T23:35:58.913Z,19.43
2022-12-01T23:38:33.755Z,17.63
2022-12-01T23:41:07.162Z,15.20
2022-12-01T23:43:40.839Z,15.67
2022-12-01T23:46:14.910Z,15.63
2022-12-01T23:48:46.553Z,14.87
2022-12-01T23:51:21.206Z,14.80
2022-12-01T23:53:50.975Z,17.03
2022-12-01T23:56:22.523Z,17.33
2022-12-01T23:58:52.992Z,17.40
